Time;durP1;ratioP1;P1;durP2;ratioP2;P2;SDS_P1;SDS_P2;PMS_P1;PMS_P2;Temp;Humidity;BMP_temperature;BMP_pressure;BME280_temperature;BME280_humidity;BME280_pressure;Samples;Min_cycle;Max_cycle;Signal;HPM_P1;HPM_P2
2023/10/19 00:00:55;;;;;;;22.33;19.97;;;;;;;11.10;100.00;96487.25;5074412;28;20644;-73
2023/10/19 00:03:23;;;;;;;20.63;18.57;;;;;;;11.17;100.00;96486.22;5074363;28;20291;-73
2023/10/19 00:05:49;;;;;;;21.10;19.10;;;;;;;11.18;100.00;96488.63;5074261;28;20205;-73
2023/10/19 00:08:16;;;;;;;21.87;19.77;;;;;;;11.26;100.00;96482.00;5074264;28;20231;-74
2023/10/19 00:10:44;;;;;;;22.93;20.60;;;;;;;11.21;100.00;96471.34;5074053;28;20229;-74
2023/10/19 00:13:12;;;;;;;21.10;19.00;;;;;;;11.15;100.00;96481.16;5074088;28;20208;-74
2023/10/19 00:15:40;;;;;;;21.33;19.03;;;;;;;11.19;100.00;96468.94;5074037;28;20208;-74
2023/10/19 00:18:22;;;;;;;22.40;20.00;;;;;;;11.26;100.00;96474.81;5074099;28;20228;-74
2023/10/19 00:20:54;;;;;;;23.10;20.37;;;;;;;11.18;100.00;96478.00;5074082;28;20291;-74
2023/10/19 00:23:31;;;;;;;23.17;20.63;;;;;;;11.25;100.00;96462.56;5073680;28;20647;-74
2023/10/19 00:26:08;;;;;;;22.80;20.40;;;;;;;11.10;100.00;96467.84;5073208;28;20250;-74
2023/10/19 00:28:35;;;;;;;23.10;20.70;;;;;;;11.03;100.00;96475.25;5056898;28;20319;-74
2023/10/19 00:31:04;;;;;;;22.77;20.50;;;;;;;10.93;100.00;96483.19;5074063;28;20231;-74
2023/10/19 00:33:32;;;;;;;22.80;19.20;;;;;;;11.07;100.00;96484.31;5074174;28;20215;-74
2023/10/19 00:36:07;;;;;;;20.43;18.33;;;;;;;11.33;100.00;96483.34;5073786;28;20241;-74
2023/10/19 00:38:50;;;;;;;21.57;19.33;;;;;;;11.25;100.00;96467.88;5073461;28;20777;-74
2023/10/19 00:41:21;;;;;;;21.17;17.83;;;;;;;11.50;100.00;96472.50;5074036;28;20195;-74
2023/10/19 00:43:49;;;;;;;24.67;21.47;;;;;;;11.57;100.00;96475.72;5073768;28;20197;-73
2023/10/19 00:46:23;;;;;;;23.13;20.30;;;;;;;11.56;100.00;96464.25;5073746;28;20620;-73
2023/10/19 00:48:58;;;;;;;25.50;20.93;;;;;;;11.52;100.00;96465.06;5073619;28;20315;-73
2023/10/19 00:51:50;;;;;;;19.47;17.37;;;;;;;11.58;100.00;96448.81;5073465;28;20689;-73
2023/10/19 00:54:26;;;;;;;15.77;14.17;;;;;;;11.68;100.00;96442.75;5073260;28;20644;-73
2023/10/19 00:56:56;;;;;;;17.57;15.43;;;;;;;11.83;100.00;96427.59;5073312;28;20228;-73
2023/10/19 00:59:23;;;;;;;15.10;13.50;;;;;;;11.88;100.00;96429.44;5073160;28;20665;-73
2023/10/19 01:01:57;;;;;;;14.90;13.30;;;;;;;12.03;100.00;96432.13;5073312;28;20312;-73
2023/10/19 01:04:25;;;;;;;14.77;13.27;;;;;;;11.94;100.00;96412.41;5073440;28;20360;-73
2023/10/19 01:07:05;;;;;;;20.23;16.00;;;;;;;11.93;100.00;96419.59;5073392;28;20295;-73
2023/10/19 01:09:34;;;;;;;16.20;14.40;;;;;;;11.92;100.00;96414.53;5073288;28;20203;-73
2023/10/19 01:12:17;;;;;;;17.80;14.60;;;;;;;11.91;100.00;96411.09;5073514;28;20232;-73
2023/10/19 01:14:43;;;;;;;16.80;15.10;;;;;;;11.93;100.00;96416.94;5073208;28;20291;-73
2023/10/19 01:17:11;;;;;;;19.43;15.67;;;;;;;11.92;100.00;96414.53;5073248;28;20232;-74
2023/10/19 01:19:40;;;;;;;19.93;17.57;;;;;;;11.90;100.00;96409.50;5073288;28;20216;-74
2023/10/19 01:22:07;;;;;;;20.13;17.73;;;;;;;11.82;100.00;96407.34;5073550;28;20204;-74
2023/10/19 01:24:40;;;;;;;21.73;18.17;;;;;;;11.74;100.00;96391.91;5073209;28;20204;-74
2023/10/19 01:27:10;;;;;;;21.57;19.30;;;;;;;11.71;100.00;96391.66;5073197;28;20197;-74
2023/10/19 01:29:39;;;;;;;19.67;17.57;;;;;;;11.86;100.00;96379.13;5074095;28;20235;-74
2023/10/19 01:32:08;;;;;;;19.50;17.50;;;;;;;11.87;100.00;96379.91;5073399;28;20240;-74
2023/10/19 01:34:36;;;;;;;20.20;18.20;;;;;;;11.85;100.00;96380.19;5073044;28;20201;-73
2023/10/19 01:37:03;;;;;;;21.20;18.90;;;;;;;11.83;100.00;96384.19;5074761;28;20208;-73
2023/10/19 01:39:32;;;;;;;22.37;19.97;;;;;;;12.05;100.00;96377.53;5076592;28;20208;-73
2023/10/19 01:41:58;;;;;;;19.47;17.37;;;;;;;11.92;100.00;96374.59;5076786;28;20707;-73
2023/10/19 01:44:25;;;;;;;24.30;20.03;;;;;;;11.92;100.00;96371.94;5077075;28;20206;-73
2023/10/19 01:46:51;;;;;;;20.50;18.23;;;;;;;11.98;100.00;96379.66;5076259;28;20202;-73
2023/10/19 01:49:26;;;;;;;19.50;17.50;;;;;;;12.05;100.00;96366.88;5076618;28;20263;-73
2023/10/19 01:51:52;;;;;;;25.10;19.63;;;;;;;12.06;100.00;96364.97;5076606;28;20283;-73
2023/10/19 01:54:22;;;;;;;22.30;18.83;;;;;;;12.07;100.00;96362.06;5076513;28;20556;-73
2023/10/19 01:56:50;;;;;;;21.37;17.77;;;;;;;12.06;100.00;96364.97;5076621;28;20190;-73
2023/10/19 01:59:16;;;;;;;19.80;17.70;;;;;;;12.07;100.00;96362.06;5076579;28;20210;-73
2023/10/19 02:01:45;;;;;;;22.73;18.63;;;;;;;12.19;100.00;96361.78;5076297;28;20214;-73
2023/10/19 02:04:13;;;;;;;20.00;17.90;;;;;;;12.09;100.00;96361.78;5076190;28;20205;-73
2023/10/19 02:06:40;;;;;;;19.70;17.30;;;;;;;12.00;100.00;96361.56;5076179;28;20683;-73
2023/10/19 02:09:09;;;;;;;22.07;18.60;;;;;;;11.96;100.00;96357.81;5076304;28;20226;-73
2023/10/19 02:11:37;;;;;;;22.23;17.73;;;;;;;11.97;100.00;96362.06;5075769;28;20223;-74
2023/10/19 02:14:08;;;;;;;22.63;17.70;;;;;;;12.14;100.00;96359.13;5076021;28;20207;-74
2023/10/19 02:16:36;;;;;;;27.13;19.60;;;;;;;12.15;100.00;96348.19;5076055;28;20711;-74
2023/10/19 02:19:02;;;;;;;20.30;17.77;;;;;;;11.96;100.00;96344.50;5075942;28;20730;-74
2023/10/19 02:21:30;;;;;;;20.47;18.37;;;;;;;12.07;100.00;96354.06;5076287;28;20212;-74
2023/10/19 02:23:57;;;;;;;24.40;19.03;;;;;;;11.99;100.00;96343.97;5075954;28;20205;-74
2023/10/19 02:26:26;;;;;;;27.37;19.63;;;;;;;12.02;100.00;96348.75;5075848;28;20202;-74
2023/10/19 02:28:52;;;;;;;28.07;18.97;;;;;;;12.09;100.00;96343.16;5075986;28;20310;-74
2023/10/19 02:31:21;;;;;;;22.70;18.60;;;;;;;12.05;100.00;96334.09;5075682;28;20263;-74
2023/10/19 02:33:51;;;;;;;20.80;18.50;;;;;;;12.07;100.00;96338.09;5075876;28;20206;-74
2023/10/19 02:36:19;;;;;;;19.73;16.43;;;;;;;12.05;100.00;96339.41;5076112;28;20194;-74
2023/10/19 02:38:48;;;;;;;20.10;16.67;;;;;;;12.23;100.00;96337.00;5075905;28;20222;-74
2023/10/19 02:41:17;;;;;;;18.57;16.63;;;;;;;12.17;100.00;96339.94;5075655;28;20238;-74
2023/10/19 02:43:45;;;;;;;20.03;17.93;;;;;;;12.16;100.00;96336.47;5075678;28;20285;-74
2023/10/19 02:46:13;;;;;;;20.73;18.37;;;;;;;12.21;100.00;96333.00;5075260;28;20663;-74
2023/10/19 02:48:44;;;;;;;24.10;18.30;;;;;;;12.08;100.00;96338.91;5074376;28;20261;-74
2023/10/19 02:51:10;;;;;;;22.10;18.63;;;;;;;12.00;100.00;96339.44;5076280;28;20219;-74
2023/10/19 02:53:39;;;;;;;19.90;17.70;;;;;;;11.94;100.00;96325.31;5075563;28;20234;-74
2023/10/19 02:56:18;;;;;;;28.40;19.13;;;;;;;11.87;100.00;96338.13;5075695;28;20235;-74
2023/10/19 02:58:48;;;;;;;20.67;17.57;;;;;;;11.93;100.00;96329.06;5075859;28;20228;-73
2023/10/19 03:01:22;;;;;;;18.37;16.57;;;;;;;11.95;100.00;96331.47;5075414;28;20216;-73
2023/10/19 03:03:53;;;;;;;18.27;16.47;;;;;;;11.91;100.00;96319.75;5076116;28;20212;-73
2023/10/19 03:06:24;;;;;;;20.60;17.87;;;;;;;11.97;100.00;96318.66;5075220;28;20209;-73
2023/10/19 03:08:57;;;;;;;20.57;17.40;;;;;;;11.82;100.00;96319.50;5075169;28;20313;-73
2023/10/19 03:11:27;;;;;;;18.83;16.93;;;;;;;11.74;100.00;96314.72;5075138;28;20211;-73
2023/10/19 03:13:53;;;;;;;21.10;17.47;;;;;;;11.56;100.00;96317.06;5075092;28;20216;-73
2023/10/19 03:16:20;;;;;;;20.37;17.53;;;;;;;11.57;100.00;96311.50;5074926;28;20706;-73
2023/10/19 03:18:46;;;;;;;21.10;18.13;;;;;;;11.52;100.00;96306.16;5074645;28;20225;-73
2023/10/19 03:21:12;;;;;;;19.43;17.43;;;;;;;11.52;100.00;96305.41;5074651;28;20204;-73
2023/10/19 03:23:38;;;;;;;19.20;17.23;;;;;;;11.45;100.00;96297.69;5074910;28;20295;-73
2023/10/19 03:28:48;;;;;;;18.50;16.57;;;;;;;11.41;100.00;96291.28;5063923;28;20228;-73
2023/10/19 03:31:17;;;;;;;19.60;17.60;;;;;;;11.39;100.00;96287.31;5074279;28;20294;-73
2023/10/19 03:33:53;;;;;;;19.03;16.87;;;;;;;11.44;100.00;96287.28;5074685;28;20215;-73
2023/10/19 03:36:20;;;;;;;20.33;17.50;;;;;;;11.37;100.00;96284.91;5074742;28;20753;-73
2023/10/19 03:38:46;;;;;;;21.70;17.10;;;;;;;11.31;100.00;96291.28;5075140;28;20226;-73
2023/10/19 03:41:13;;;;;;;18.57;16.63;;;;;;;11.38;100.00;96283.03;5074189;28;20686;-73
2023/10/19 03:43:40;;;;;;;20.67;17.73;;;;;;;11.47;100.00;96290.22;5074085;28;20266;-73
2023/10/19 03:46:18;;;;;;;22.43;18.27;;;;;;;11.46;100.00;96282.50;5074168;28;20310;-73
2023/10/19 03:48:46;;;;;;;21.13;18.73;;;;;;;11.46;100.00;96280.63;5074347;28;20225;-73
2023/10/19 03:51:14;;;;;;;28.53;19.83;;;;;;;11.48;100.00;96278.50;5073976;28;20745;-73
2023/10/19 03:53:46;;;;;;;22.97;19.20;;;;;;;11.42;100.00;96276.91;5073885;28;20227;-73
2023/10/19 03:56:12;;;;;;;24.27;18.70;;;;;;;11.48;100.00;96275.06;5074669;28;20205;-74
2023/10/19 03:58:42;;;;;;;24.80;19.40;;;;;;;11.45;100.00;96268.41;5074071;28;20232;-74
2023/10/19 04:01:08;;;;;;;24.43;19.27;;;;;;;11.37;100.00;96273.44;5073699;28;20220;-74
2023/10/19 04:03:36;;;;;;;19.70;17.43;;;;;;;11.33;100.00;96265.22;5073689;28;20569;-74
2023/10/19 04:06:04;;;;;;;20.27;17.97;;;;;;;11.35;100.00;96259.63;5074577;28;20302;-74
2023/10/19 04:08:35;;;;;;;24.10;18.13;;;;;;;11.32;100.00;96256.41;5073520;28;20256;-74
2023/10/19 04:11:20;;;;;;;20.67;16.50;;;;;;;11.37;100.00;96252.97;5074303;28;20274;-74
2023/10/19 04:13:47;;;;;;;18.83;16.73;;;;;;;11.34;100.00;96245.53;5074009;28;20198;-74
2023/10/19 04:16:14;;;;;;;18.87;15.70;;;;;;;11.43;100.00;96251.13;5073932;28;20621;-74
2023/10/19 04:18:43;;;;;;;19.23;15.53;;;;;;;11.41;100.00;96250.56;5073702;28;20226;-74
2023/10/19 04:21:10;;;;;;;18.90;15.93;;;;;;;11.46;100.00;96245.25;5073803;28;20255;-74
2023/10/19 04:23:37;;;;;;;17.23;15.40;;;;;;;11.45;100.00;96241.81;5073062;28;20303;-74
2023/10/19 04:26:10;;;;;;;18.67;15.77;;;;;;;11.36;100.00;96232.75;5074052;28;20208;-74
2023/10/19 04:28:44;;;;;;;18.67;15.30;;;;;;;11.40;100.00;96236.47;5073641;28;20232;-74
2023/10/19 04:31:13;;;;;;;17.83;15.93;;;;;;;11.42;100.00;96230.88;5073443;28;20221;-74
2023/10/19 04:33:42;;;;;;;19.90;16.00;;;;;;;11.41;100.00;96234.59;5073281;28;20262;-74
2023/10/19 04:36:11;;;;;;;15.40;13.90;;;;;;;11.35;100.00;96236.47;5073447;28;20678;-74
2023/10/19 04:38:38;;;;;;;15.63;14.03;;;;;;;11.43;100.00;96224.50;5072994;28;20221;-74
2023/10/19 04:41:10;;;;;;;19.60;16.37;;;;;;;11.46;100.00;96224.75;5073286;28;20569;-74
2023/10/19 04:43:43;;;;;;;18.53;15.03;;;;;;;11.43;100.00;96222.63;5073255;28;20298;-74
2023/10/19 04:46:12;;;;;;;16.93;14.57;;;;;;;11.53;100.00;96224.50;5072888;28;20213;-74
2023/10/19 04:48:41;;;;;;;17.43;14.67;;;;;;;11.54;100.00;96226.09;5072827;28;20225;-74
2023/10/19 04:51:09;;;;;;;17.00;13.37;;;;;;;11.60;100.00;96225.03;5072930;28;20233;-74
2023/10/19 04:53:35;;;;;;;19.30;15.33;;;;;;;11.68;100.00;96225.28;5073162;28;20294;-74
2023/10/19 04:56:04;;;;;;;18.07;15.03;;;;;;;11.50;100.00;96215.19;5073362;28;20202;-74
2023/10/19 04:58:31;;;;;;;15.77;13.70;;;;;;;11.57;100.00;96221.00;5073265;28;20237;-74
2023/10/19 05:00:58;;;;;;;16.63;14.63;;;;;;;11.54;100.00;96223.41;5072829;28;20229;-74
2023/10/19 05:03:27;;;;;;;19.53;14.43;;;;;;;11.52;100.00;96215.69;5073204;28;20257;-74
2023/10/19 05:05:54;;;;;;;19.63;15.10;;;;;;;11.54;100.00;96215.44;5072539;28;20304;-74
2023/10/19 05:08:24;;;;;;;18.20;15.27;;;;;;;11.64;100.00;96220.75;5072870;28;20222;-74
2023/10/19 05:10:52;;;;;;;16.73;14.20;;;;;;;11.62;100.00;96210.38;5073086;28;20217;-74
2023/10/19 05:13:19;;;;;;;16.87;15.00;;;;;;;11.65;100.00;96214.38;5077303;28;20206;-74
2023/10/19 05:15:45;;;;;;;20.03;15.47;;;;;;;11.78;100.00;96211.94;5076751;28;20229;-74
2023/10/19 05:18:12;;;;;;;17.67;15.77;;;;;;;11.77;100.00;96215.69;5077129;28;20233;-74
2023/10/19 05:20:40;;;;;;;21.70;17.80;;;;;;;11.80;100.00;96223.13;5077106;28;20206;-74
2023/10/19 05:23:08;;;;;;;19.17;15.77;;;;;;;11.69;100.00;96221.56;5077593;28;20636;-74
2023/10/19 05:25:34;;;;;;;21.67;16.70;;;;;;;11.64;100.00;96221.56;5077014;28;20205;-73
2023/10/19 05:28:01;;;;;;;17.83;15.87;;;;;;;11.60;100.00;96225.03;5075866;28;20224;-73
2023/10/19 05:30:27;;;;;;;17.03;15.03;;;;;;;11.64;100.00;96218.09;5076986;28;20205;-73
2023/10/19 05:32:55;;;;;;;19.63;15.87;;;;;;;11.54;100.00;96220.75;5076780;28;20220;-74
2023/10/19 05:35:24;;;;;;;21.50;16.80;;;;;;;11.41;100.00;96232.75;5076200;28;20219;-74
2023/10/19 05:37:50;;;;;;;19.37;14.80;;;;;;;11.33;100.00;96230.63;5076359;28;20232;-75
2023/10/19 05:40:18;;;;;;;19.40;16.50;;;;;;;11.33;100.00;96220.00;5076777;28;20212;-74
2023/10/19 05:42:44;;;;;;;20.80;16.43;;;;;;;11.26;100.00;96213.34;5076242;28;20212;-74
2023/10/19 05:45:12;;;;;;;21.33;15.63;;;;;;;11.22;100.00;96218.41;5076579;28;20202;-74
2023/10/19 05:47:39;;;;;;;19.57;16.40;;;;;;;11.22;100.00;96223.72;5076633;28;20224;-74
2023/10/19 05:50:06;;;;;;;20.97;16.00;;;;;;;11.23;100.00;96225.31;5076174;28;20297;-74
2023/10/19 05:52:32;;;;;;;20.93;17.07;;;;;;;11.23;100.00;96224.50;5076042;28;20234;-74
2023/10/19 05:54:59;;;;;;;20.97;17.17;;;;;;;11.32;100.00;96235.13;5076406;28;20312;-74
2023/10/19 05:57:25;;;;;;;19.40;16.87;;;;;;;11.31;100.00;96226.66;5075905;28;20230;-74
2023/10/19 05:59:52;;;;;;;21.73;17.13;;;;;;;11.41;100.00;96232.75;5075937;28;20212;-74
2023/10/19 06:02:18;;;;;;;21.27;16.40;;;;;;;11.44;100.00;96232.19;5075958;28;20185;-74
2023/10/19 06:04:45;;;;;;;21.60;16.60;;;;;;;11.39;100.00;96229.56;5075760;28;20205;-73
2023/10/19 06:07:11;;;;;;;22.07;17.20;;;;;;;11.44;100.00;96239.41;5075573;28;20576;-73
2023/10/19 06:09:38;;;;;;;22.30;17.43;;;;;;;11.48;100.00;96230.59;5076271;28;20220;-74
2023/10/19 06:12:05;;;;;;;20.87;16.97;;;;;;;11.51;100.00;96234.59;5076586;28;20226;-74
2023/10/19 06:14:31;;;;;;;19.50;16.07;;;;;;;11.56;100.00;96243.38;5076221;28;20237;-74
2023/10/19 06:16:58;;;;;;;20.70;16.00;;;;;;;11.53;100.00;96241.22;5075545;28;20228;-74
2023/10/19 06:19:24;;;;;;;19.43;16.30;;;;;;;11.54;100.00;96244.72;5075963;28;20204;-74
2023/10/19 06:21:51;;;;;;;18.33;15.77;;;;;;;11.69;100.00;96239.38;5075514;28;20211;-74
2023/10/19 06:24:18;;;;;;;18.10;16.17;;;;;;;11.69;100.00;96240.19;5075620;28;20293;-74
2023/10/19 06:26:45;;;;;;;20.00;16.00;;;;;;;11.65;100.00;96241.78;5075528;28;20218;-74
2023/10/19 06:29:12;;;;;;;16.63;15.00;;;;;;;11.62;100.00;96239.66;5074925;28;20724;-74
2023/10/19 06:31:38;;;;;;;17.50;15.80;;;;;;;11.78;100.00;96246.56;5075412;28;20276;-74
2023/10/19 06:34:04;;;;;;;17.87;15.97;;;;;;;11.71;100.00;96240.72;5074725;28;20569;-74
2023/10/19 06:36:31;;;;;;;17.67;15.60;;;;;;;11.81;100.00;96243.38;5074778;28;20669;-74
2023/10/19 06:38:57;;;;;;;16.30;14.60;;;;;;;11.81;100.00;96237.25;5075359;28;20248;-73
2023/10/19 06:41:24;;;;;;;16.87;15.07;;;;;;;11.81;100.00;96242.56;5075488;28;20206;-73
2023/10/19 06:43:50;;;;;;;20.33;15.67;;;;;;;11.81;100.00;96245.22;5075398;28;20212;-73
2023/10/19 06:46:17;;;;;;;22.67;16.30;;;;;;;11.77;100.00;96244.97;5074697;28;20208;-73
2023/10/19 06:48:43;;;;;;;18.77;14.97;;;;;;;11.74;100.00;96248.16;5074765;28;20258;-73
2023/10/19 06:51:09;;;;;;;21.63;15.90;;;;;;;11.82;100.00;96239.63;5075074;28;20227;-73
2023/10/19 06:53:36;;;;;;;18.83;15.80;;;;;;;11.84;100.00;96248.13;5075611;28;20223;-73
2023/10/19 06:56:04;;;;;;;23.23;16.33;;;;;;;11.78;100.00;96241.22;5074910;28;20580;-73
2023/10/19 06:58:30;;;;;;;18.77;15.90;;;;;;;11.99;100.00;96237.47;5075037;28;20239;-73
2023/10/19 07:01:05;;;;;;;19.37;16.40;;;;;;;11.96;100.00;96240.66;5074562;28;20276;-73
2023/10/19 07:03:31;;;;;;;19.90;15.57;;;;;;;12.01;100.00;96232.66;5074590;28;20630;-73
2023/10/19 07:05:58;;;;;;;21.40;16.00;;;;;;;12.04;100.00;96233.97;5074487;28;20696;-73
2023/10/19 07:08:26;;;;;;;22.13;15.30;;;;;;;12.03;100.00;96235.81;5074329;28;20232;-73
2023/10/19 07:10:53;;;;;;;20.50;14.47;;;;;;;12.15;100.00;96238.19;5074962;28;20215;-73
2023/10/19 07:13:21;;;;;;;16.37;14.43;;;;;;;12.13;100.00;96235.00;5074438;28;20208;-73
2023/10/19 07:15:49;;;;;;;17.03;14.57;;;;;;;12.36;100.00;96223.72;5074355;28;20211;-73
2023/10/19 07:18:16;;;;;;;17.77;14.23;;;;;;;12.37;100.00;96231.44;5074594;28;20323;-73
2023/10/19 07:20:43;;;;;;;17.13;13.77;;;;;;;12.41;100.00;96229.00;5074913;28;20212;-73
2023/10/19 07:23:18;;;;;;;18.93;14.97;;;;;;;12.42;100.00;96239.41;5074476;28;20682;-74
2023/10/19 07:25:45;;;;;;;24.30;16.00;;;;;;;12.33;100.00;96238.38;5074521;28;20189;-73
2023/10/19 07:28:13;;;;;;;18.73;15.77;;;;;;;12.37;100.00;96226.09;5074164;28;20260;-73
2023/10/19 07:30:41;;;;;;;21.87;15.73;;;;;;;12.33;100.00;96218.91;5074272;28;20204;-73
2023/10/19 07:33:07;;;;;;;19.13;15.53;;;;;;;12.51;100.00;96227.09;5074084;28;20234;-73
2023/10/19 07:35:38;;;;;;;15.90;14.27;;;;;;;12.53;100.00;96227.59;5073768;28;20204;-73
2023/10/19 07:38:07;;;;;;;18.90;14.17;;;;;;;12.63;100.00;96222.25;5073934;28;20228;-73
2023/10/19 07:40:34;;;;;;;17.40;15.20;;;;;;;12.59;100.00;96217.72;5073184;28;20205;-73
2023/10/19 07:43:00;;;;;;;18.77;14.70;;;;;;;12.66;100.00;96219.00;5073847;28;20207;-73
2023/10/19 07:45:26;;;;;;;16.23;14.00;;;;;;;12.65;100.00;96212.09;5074348;28;20205;-73
2023/10/19 07:47:53;;;;;;;16.70;13.97;;;;;;;12.83;100.00;96221.28;5074002;28;20224;-73
2023/10/19 07:50:22;;;;;;;16.23;13.30;;;;;;;13.02;100.00;96207.06;5073858;28;20288;-73
2023/10/19 07:52:51;;;;;;;16.67;13.33;;;;;;;13.06;100.00;96208.09;5056534;28;20220;-73
2023/10/19 07:55:19;;;;;;;18.00;14.13;;;;;;;13.22;100.00;96206.09;5073801;28;20293;-73
2023/10/19 07:57:46;;;;;;;16.63;13.33;;;;;;;13.16;100.00;96208.00;5073680;28;20225;-73
2023/10/19 08:00:14;;;;;;;17.07;13.70;;;;;;;13.18;100.00;96205.88;5073708;28;20299;-73
2023/10/19 08:02:42;;;;;;;14.97;13.47;;;;;;;13.28;100.00;96213.78;5073868;28;20532;-73
2023/10/19 08:05:11;;;;;;;16.43;14.23;;;;;;;13.18;100.00;96205.88;5073596;28;20295;-73
2023/10/19 08:07:39;;;;;;;16.27;13.20;;;;;;;13.42;100.00;96212.06;5073543;28;20679;-73
2023/10/19 08:10:09;;;;;;;14.57;12.80;;;;;;;13.34;100.00;96209.97;5074364;28;20283;-73
2023/10/19 08:12:36;;;;;;;18.10;13.57;;;;;;;13.36;100.00;96207.84;5073181;28;20730;-73
2023/10/19 08:15:03;;;;;;;18.77;14.37;;;;;;;13.22;100.00;96206.91;5073450;28;20277;-73
2023/10/19 08:17:30;;;;;;;16.33;14.60;;;;;;;13.23;100.00;96199.69;5073721;28;20269;-73
2023/10/19 08:19:57;;;;;;;15.53;13.83;;;;;;;13.46;100.00;96205.09;5073672;28;20291;-73
2023/10/19 08:22:24;;;;;;;15.87;13.53;;;;;;;13.54;100.00;96212.47;5073448;28;20205;-73
2023/10/19 08:24:51;;;;;;;15.70;13.27;;;;;;;13.63;100.00;96210.78;5073697;28;20208;-73
2023/10/19 08:27:18;;;;;;;16.20;12.97;;;;;;;13.69;100.00;96209.66;5073136;28;20727;-73
2023/10/19 08:29:46;;;;;;;15.83;12.80;;;;;;;13.77;100.00;96216.25;5073420;28;20204;-73
2023/10/19 08:32:14;;;;;;;15.27;13.20;;;;;;;13.95;100.00;96207.50;5073147;28;20704;-73
2023/10/19 08:34:41;;;;;;;18.17;13.87;;;;;;;13.92;100.00;96210.72;5073495;28;20208;-73
2023/10/19 08:37:08;;;;;;;17.00;13.40;;;;;;;13.82;100.00;96205.50;5073894;28;20211;-73
2023/10/19 08:39:36;;;;;;;17.00;13.00;;;;;;;13.98;100.00;96213.06;5073559;28;20211;-73
2023/10/19 08:42:07;;;;;;;14.90;12.87;;;;;;;14.01;100.00;96201.00;5073334;28;20212;-73
2023/10/19 08:44:34;;;;;;;15.80;12.40;;;;;;;14.07;100.00;96202.56;5073220;28;20236;-73
2023/10/19 08:47:00;;;;;;;13.80;11.47;;;;;;;14.01;100.00;96198.34;5072465;28;20273;-73
2023/10/19 08:49:27;;;;;;;14.17;12.13;;;;;;;14.21;100.00;96192.81;5073153;28;20205;-73
2023/10/19 08:51:55;;;;;;;15.43;11.73;;;;;;;14.19;100.00;96192.25;5073150;28;20224;-73
2023/10/19 08:54:21;;;;;;;17.23;13.27;;;;;;;14.45;100.00;96201.56;5073812;28;20204;-73
2023/10/19 08:56:48;;;;;;;17.87;13.03;;;;;;;14.48;100.00;96198.34;5073028;28;20220;-73
2023/10/19 08:59:16;;;;;;;13.53;11.83;;;;;;;14.66;100.00;96190.28;5073425;28;20235;-73
2023/10/19 09:01:44;;;;;;;13.43;11.87;;;;;;;14.49;100.00;96190.03;5072543;28;20209;-73
2023/10/19 09:04:16;;;;;;;11.00;9.77;;;;;;;14.62;100.00;96185.81;5072545;28;20682;-73
2023/10/19 09:06:42;;;;;;;12.47;9.73;;;;;;;14.71;100.00;96187.56;5073647;28;20208;-73
2023/10/19 09:09:19;;;;;;;11.90;9.83;;;;;;;14.98;100.00;96184.22;5072926;28;20770;-73
2023/10/19 09:11:49;;;;;;;10.57;8.93;;;;;;;15.01;100.00;96179.06;5073058;28;20216;-73
2023/10/19 09:14:17;;;;;;;10.23;9.13;;;;;;;15.19;100.00;96178.25;5073489;28;20204;-73
2023/10/19 09:16:57;;;;;;;9.57;8.63;;;;;;;15.32;100.00;96177.50;5072550;28;20602;-73
2023/10/19 09:19:43;;;;;;;9.73;8.00;;;;;;;15.31;100.00;96191.97;5073052;28;20200;-73
2023/10/19 09:22:18;;;;;;;8.73;7.80;;;;;;;15.33;100.00;96184.44;5072862;28;20714;-73
2023/10/19 09:24:49;;;;;;;12.37;8.33;;;;;;;15.45;100.00;96187.47;5072776;28;20630;-73
2023/10/19 09:27:20;;;;;;;9.33;8.40;;;;;;;15.49;100.00;96182.31;5072762;28;20263;-73
2023/10/19 09:29:48;;;;;;;10.80;8.53;;;;;;;15.59;100.00;96188.28;5072312;28;20185;-73
2023/10/19 09:32:14;;;;;;;9.47;8.47;;;;;;;15.75;100.00;96176.19;5072675;28;20221;-73
2023/10/19 09:34:43;;;;;;;11.23;9.20;;;;;;;15.64;100.00;96174.00;5072312;28;20211;-73
2023/10/19 09:37:11;;;;;;;12.57;8.33;;;;;;;15.83;100.00;96172.06;5072336;28;20231;-74
2023/10/19 09:39:36;;;;;;;8.57;7.73;;;;;;;15.89;100.00;96170.84;5072742;28;20201;-73
2023/10/19 09:42:12;;;;;;;10.17;8.30;;;;;;;16.28;100.00;96168.47;5072659;28;20212;-73
2023/10/19 09:44:43;;;;;;;9.40;7.57;;;;;;;16.21;100.00;96158.16;5072197;28;20232;-73
2023/10/19 09:47:13;;;;;;;10.30;8.33;;;;;;;16.42;100.00;96153.19;5072767;28;20211;-73
2023/10/19 09:49:42;;;;;;;12.43;8.47;;;;;;;16.26;100.00;96159.91;5073089;28;20213;-74
2023/10/19 09:52:10;;;;;;;15.07;8.80;;;;;;;16.20;100.00;96150.41;5072342;28;20278;-75
2023/10/19 09:54:58;;;;;;;12.63;8.40;;;;;;;16.02;100.00;96154.75;5072668;28;20230;-75
2023/10/19 09:57:52;;;;;;;8.80;7.37;;;;;;;16.05;100.00;96153.41;5073467;28;20220;-76
2023/10/19 10:00:23;;;;;;;10.30;8.23;;;;;;;16.13;100.00;96152.69;5075607;28;20205;-76
2023/10/19 10:02:51;;;;;;;11.43;7.80;;;;;;;15.95;100.00;96153.56;5076266;28;20188;-76
2023/10/19 10:05:39;;;;;;;8.53;7.40;;;;;;;16.11;100.00;96160.22;5076520;28;20227;-76
2023/10/19 10:08:17;;;;;;;10.90;6.53;;;;;;;16.31;100.00;96154.44;5075380;28;20734;-76
2023/10/19 10:10:47;;;;;;;7.87;6.70;;;;;;;16.23;100.00;96155.94;5076333;28;20209;-76
2023/10/19 10:13:26;;;;;;;8.87;6.60;;;;;;;16.11;100.00;96158.31;5076049;28;20228;-76
2023/10/19 10:15:54;;;;;;;7.90;5.57;;;;;;;16.06;100.00;96161.13;5075655;28;20204;-76
2023/10/19 10:18:21;;;;;;;6.10;5.50;;;;;;;16.22;100.00;96166.97;5076052;28;20225;-76
2023/10/19 10:20:48;;;;;;;9.33;6.27;;;;;;;16.22;100.00;96151.69;5075639;28;20667;-76
2023/10/19 10:23:17;;;;;;;7.43;5.83;;;;;;;16.17;100.00;96145.63;5075705;28;20660;-76
2023/10/19 10:25:48;;;;;;;10.67;6.17;;;;;;;16.03;100.00;96144.84;5075658;28;20201;-76
2023/10/19 10:28:15;;;;;;;9.00;6.10;;;;;;;16.30;100.00;96134.09;5075775;28;20319;-76
2023/10/19 10:31:14;;;;;;;6.00;5.40;;;;;;;16.35;100.00;96144.69;5075566;28;20204;-76
2023/10/19 10:33:41;;;;;;;7.30;5.03;;;;;;;16.12;100.00;96137.69;5075571;28;20646;-76
2023/10/19 10:36:08;;;;;;;7.53;5.13;;;;;;;16.29;100.00;96138.66;5075902;28;20209;-76
2023/10/19 10:38:37;;;;;;;5.97;4.80;;;;;;;16.41;100.00;96136.28;5075298;28;20227;-76
2023/10/19 10:41:04;;;;;;;5.97;4.87;;;;;;;16.38;100.00;96133.38;5075437;28;20212;-76
2023/10/19 10:43:31;;;;;;;6.50;4.93;;;;;;;16.39;100.00;96133.09;5075146;28;20207;-77
2023/10/19 10:46:07;;;;;;;5.33;4.80;;;;;;;16.47;100.00;96137.75;5075579;28;20629;-76
2023/10/19 10:48:36;;;;;;;8.17;5.20;;;;;;;16.38;100.00;96136.06;5075411;28;20227;-76
2023/10/19 10:51:02;;;;;;;6.13;5.50;;;;;;;16.30;100.00;96134.09;5075344;28;20571;-76
2023/10/19 10:53:28;;;;;;;9.43;6.30;;;;;;;16.27;100.00;96137.34;5074093;28;20443;-76
2023/10/19 10:55:55;;;;;;;9.40;5.43;;;;;;;16.22;100.00;96132.91;5074777;28;20231;-76
2023/10/19 10:58:21;;;;;;;6.50;5.80;;;;;;;16.26;100.00;96141.94;5075290;28;20229;-76
2023/10/19 11:00:50;;;;;;;10.03;5.07;;;;;;;16.32;100.00;96131.88;5074732;28;20220;-76
2023/10/19 11:03:17;;;;;;;9.40;4.83;;;;;;;16.26;100.00;96144.63;5074327;28;20210;-76
2023/10/19 11:05:45;;;;;;;7.03;5.07;;;;;;;16.43;100.00;96147.50;5075018;28;20212;-76
2023/10/19 11:08:17;;;;;;;8.70;5.53;;;;;;;16.38;100.00;96136.84;5074749;28;20224;-76
2023/10/19 11:10:46;;;;;;;7.60;5.47;;;;;;;16.29;100.00;96137.88;5074040;28;20234;-76
2023/10/19 11:13:24;;;;;;;5.17;4.50;;;;;;;16.41;100.00;96136.28;5074306;28;20612;-76
2023/10/19 11:15:53;;;;;;;8.30;4.67;;;;;;;16.63;100.00;96135.50;5074756;28;20184;-76
2023/10/19 11:18:40;;;;;;;6.07;4.13;;;;;;;16.63;100.00;96136.31;5074481;28;20289;-76
2023/10/19 11:21:09;;;;;;;5.77;4.47;;;;;;;16.63;100.00;96132.84;5074426;28;20219;-76
2023/10/19 11:23:52;;;;;;;6.40;4.67;;;;;;;16.46;100.00;96132.72;5074278;28;20556;-77